Flight Track Log - Related Links

Times and Time Zones

All times are in EDT time to prevent confusion due to time zone crossing. See the AWE1835 flight status page for this flight to view local times or setup timezone preferences in your user account.

Time Position Orientation Groundspeed Altitude Reporting Facility
EDT Latitude Longitude Course Direction KTS MPH feet Rate Location/Type
Thu 07:22:28 AM 40.4875 -80.1872 102° East 169 194 2,800  Level Cleveland Center
Thu 07:23:30 AM 40.4806 -80.1086 97° East 221 254 4,300 1,984 Climbing Cleveland Center
Thu 07:24:00 AM 40.4320 -79.8172 103° East  Level FlightAware Approximate
Thu 07:24:32 AM 40.4758 -80.0072 93° East 280 322 6,900  Level Cleveland Center
Thu 07:25:00 AM 40.4113 -79.6846 98° East  Level FlightAware Approximate
Thu 07:25:34 AM 40.4619 -79.8883 99° East 313 360 10,100  Level Cleveland Center
Thu 07:26:00 AM 40.4000 -79.5503 90° East  Level FlightAware Approximate
Thu 07:26:35 AM 40.4450 -79.7589 100° East 358 412 11,500  Level Cleveland Center
Thu 07:27:00 AM 40.3835 -79.4172 102° East  Level FlightAware Approximate
Thu 07:27:37 AM 40.4253 -79.6131 100° East 404 465 14,000  Level Cleveland Center
Thu 07:28:39 AM 40.4039 -79.4647 101° East 411 473 15,900 1,887 Climbing Cleveland Center
Thu 07:29:41 AM 40.3808 -79.2933 100° East 426 490 17,900 1,839 Climbing Cleveland Center
Thu 07:30:43 AM 40.3600 -79.1394 100° East 433 498 19,700 1,742 Climbing Cleveland Center
Thu 07:31:45 AM 40.3325 -78.9450 100° East 454 522 21,500 1,610 Climbing Cleveland Center
Thu 07:32:46 AM 40.3172 -78.7803 97° East 463 533 23,000 732 Climbing Cleveland Center
Thu 07:33:48 AM 40.3161 -78.6200 90° East 448 516 23,000  Level Cleveland Center
Thu 07:34:50 AM 40.3161 -78.4594 90° East 448 516 23,000  Level Cleveland Center
Thu 07:35:52 AM 40.3150 -78.2972 90° East 448 516 23,000  Level Cleveland Center
Thu 07:36:54 AM 40.3144 -78.1050 90° East 448 516 23,000  Level Cleveland Center
Thu 07:37:55 AM 40.3039 -77.9436 95° East 448 516 23,000  Level Cleveland Center
Thu 07:38:57 AM 40.2892 -77.7753 96° East 447 514 23,000 -435 Level Cleveland Center
Thu 07:39:59 AM 40.2728 -77.6144 98° East 445 512 22,100 -871 Descending Cleveland Center
Thu 07:41:01 AM 40.2581 -77.4519 97° East 445 512 21,200 -947 Descending Cleveland Center
Thu 07:41:53 AM 40.2450 -77.3086 97° East 448 516 20,300 -927 Descending New York Center
Thu 07:42:51 AM 40.2297 -77.1683 98° East 437 503 19,500 -950 Descending New York Center
Thu 07:43:53 AM 40.2136 -77.0039 97° East 414 476 18,400 -950 Descending New York Center
Thu 07:44:51 AM 40.1978 -76.8664 99° East 414 476 17,600 -942 Descending New York Center
Thu 07:45:54 AM 40.1833 -76.7022 97° East 414 476 16,500 -984 Descending New York Center
Thu 07:46:53 AM 40.1675 -76.5594 98° East 409 471 15,600 -923 Descending New York Center
Thu 07:47:51 AM 40.1553 -76.4253 97° East 409 471 14,700 -966 Descending New York Center
Thu 07:48:51 AM 40.1389 -76.2856 99° East 409 471 13,700 -1,122 Descending New York Center
Thu 07:49:54 AM 40.1231 -76.1322 98° East 391 450 12,400 -1,475 Descending New York Center
Thu 07:50:53 AM 40.1117 -76.0147 97° East 354 407 10,700 -1,231 Descending New York Center
Thu 07:51:51 AM 40.0981 -75.8969 99° East 331 381 10,000 -1,150 Descending New York Center
Thu 07:52:53 AM 40.0842 -75.7819 99° East 320 368 8,400 -1,475 Descending New York Center
Thu 07:53:53 AM 40.0778 -75.6839 95° East 313 360 7,000 -1,210 Descending New York Center
Thu 07:54:52 AM 40.0703 -75.5639 95° East 301 346 6,000 -508 Descending New York Center
Thu 07:55:51 AM 40.0678 -75.4689 92° East 296 341 6,000  Level New York Center
Thu 07:56:44 AM 40.0500 -75.3667 103° East 299 344 6,000  Level Philadelphia TRACON
Thu 07:57:50 AM 40.0333 -75.2500 101° East 276 318 6,000  Level Philadelphia TRACON
Thu 07:58:50 AM 40.0167 -75.1667 105° East 216 249 6,000 -571 Level Philadelphia TRACON
Thu 07:59:56 AM 40.0000 -75.0833 105° East 204 235 4,800 -1,100 Descending Philadelphia TRACON
Thu 08:00:50 AM 39.9833 -75.0333 113° Southeast 200 230 3,800 -947 Descending Philadelphia TRACON
Thu 08:01:50 AM 39.9333 -75.0167 166° South 191 220 3,000 -850 Descending Philadelphia TRACON
Thu 08:02:50 AM 39.9000 -75.0667 229° Southwest 170 196 2,100 -650 Descending Philadelphia TRACON
Thu 08:03:50 AM 39.9000 -75.1167 270° West 155 178 1,700 -595 Descending Philadelphia TRACON
Thu 08:04:51 AM 39.8833 -75.1667 247° West 137 158 900 -783 Descending Philadelphia TRACON
Thu 08:05:45 AM 39.8833 -75.2167 270° West 145 167 200 -778 Descending Philadelphia TRACON
Thu 08:07:00 AM 39.8667 -75.2333 247° West  Level FlightAware Approximate

Login

Don't have an account? Register now (free) for customized features, flight alerts, and more!